PDT,Max TemperatureF,Mean TemperatureF,Min TemperatureF,Max Dew PointF,MeanDew PointF,Min DewpointF,Max Humidity, Mean Humidity, Min Humidity, Max Sea Level PressureIn, Mean Sea Level PressureIn, Min Sea Level PressureIn, Max VisibilityMiles, Mean VisibilityMiles, Min VisibilityMiles, Max Wind SpeedMPH, Mean Wind SpeedMPH, Max Gust SpeedMPH,PrecipitationIn, CloudCover, Events, WindDirDegrees
2014-3-1,32,27,21,10,5,-2,62,47,32,30.01,29.93,29.69,10,9,2,35,17,43,T,8,Snow,60
2014-3-2,26,24,21,22,18,10,88,75,62,30.01,29.90,29.80,10,6,0,10,5,13,0.14,8,Fog-Snow,5
2014-3-3,36,29,21,28,23,19,92,81,70,29.93,29.87,29.80,10,8,3,10,4,12,0.03,5,Rain,347
2014-3-4,55,40,25,40,32,23,100,80,59,30.01,29.94,29.90,10,4,0,10,4,11,0.00,3,Fog,355
2014-3-5,63,51,38,50,44,36,96,76,56,29.96,29.74,29.50,10,9,5,18,7,23,0.29,6,Rain,173
2014-3-6,58,50,42,43,37,33,76,60,43,29.97,29.70,29.50,10,10,10,31,16,38,0.00,2,,208
2014-3-7,61,50,38,37,34,28,79,54,29,30.36,30.20,30.01,10,10,10,13,6,16,0.00,0,,207
2014-3-8,54,43,31,43,36,29,92,77,61,30.34,30.05,29.79,10,10,10,22,7,26,T,4,,218
2014-3-9,64,53,42,43,40,36,89,63,37,29.99,29.91,29.83,10,10,10,22,7,27,0.00,3,,255
2014-3-10,61,50,39,39,34,28,82,56,29,30.41,30.01,29.84,10,10,10,22,11,27,0.02,3,Rain,300
2014-3-11,58,46,33,28,26,23,70,48,25,30.69,30.52,30.33,10,10,10,16,6,19,0.00,0,,228
2014-3-12,59,44,28,34,29,25,92,59,26,30.48,30.32,30.09,10,10,8,12,4,15,0.00,0,,110
2014-3-13,61,45,30,33,29,25,88,57,26,30.28,30.11,29.98,10,10,9,8,4,,0.00,0,,150
2014-3-14,62,51,40,42,34,24,83,55,27,30.33,30.02,29.90,10,10,5,38,14,46,0.01,3,Rain,232
2014-3-15,60,49,37,36,32,30,82,57,32,30.39,30.29,30.16,10,10,10,17,6,23,0.00,2,,181
2014-3-16,65,56,46,42,38,34,71,56,40,30.14,29.96,29.73,10,10,10,22,11,27,0.00,4,,235
2014-3-17,57,46,34,30,19,14,53,37,20,30.25,30.00,29.72,10,10,10,33,16,40,0.00,2,,301
2014-3-18,55,42,28,25,21,18,69,46,22,30.37,30.25,30.15,10,10,10,15,8,20,0.00,0,,198
2014-3-19,61,48,35,32,26,20,70,51,32,30.27,30.07,29.90,10,10,10,32,12,38,T,3,,210
2014-3-20,56,43,30,25,18,11,69,43,16,30.35,30.23,30.08,10,10,10,23,10,29,T,2,,272
2014-3-21,54,39,23,25,17,9,88,54,19,30.33,30.29,30.25,10,10,10,12,5,15,0.00,1,,355
2014-3-22,53,37,20,22,17,14,77,49,20,30.36,30.27,30.15,10,10,10,20,7,24,0.00,1,,139
2014-3-23,58,43,27,26,23,18,75,49,22,30.45,30.27,30.16,10,10,10,13,5,17,0.00,0,,52
2014-3-24,63,47,31,26,24,20,72,46,19,30.43,30.24,29.98,10,10,10,12,7,17,0.00,1,,27
2014-3-25,60,49,38,34,28,23,59,43,27,29.96,29.75,29.57,10,10,10,23,11,28,0.00,1,,328
2014-3-26,58,49,40,37,32,28,70,52,33,29.74,29.57,29.50,10,10,10,17,8,22,0.00,2,,213
2014-3-27,61,49,37,38,33,27,85,57,28,29.93,29.69,29.53,10,10,10,23,7,27,0.00,2,,216
2014-3-28,49,41,33,47,42,29,100,85,70,30.04,29.86,29.74,10,9,5,17,8,24,0.23,6,Rain,160
2014-3-29,62,48,34,45,38,30,100,66,32,29.92,29.76,29.71,10,6,0,26,11,35,0.00,2,Fog,199
2014-3-30,60,47,33,35,29,18,89,54,19,30.09,29.89,29.79,10,10,10,22,8,28,0.00,1,,218
2014-3-31,62,45,27,32,28,24,92,59,26,30.11,29.93,29.75,10,10,10,13,6,17,0.00,1,,35